Time;durP1;ratioP1;P1;durP2;ratioP2;P2;SDS_P1;SDS_P2;PMS_P1;PMS_P2;Temp;Humidity;BMP_temperature;BMP_pressure;BME280_temperature;BME280_humidity;BME280_pressure;Samples;Min_cycle;Max_cycle;Signal;HPM_P1;HPM_P2
2024/04/23 00:01:55;;;;;;;0.60;0.60;;;9.10;83.60;;;;;;5213962;27;20376;-86
2024/04/23 00:04:21;;;;;;;1.17;0.70;;;9.10;83.40;;;;;;5189883;27;20018;-85
2024/04/23 00:06:53;;;;;;;1.08;0.90;;;9.10;83.80;;;;;;5230916;27;20015;-86
2024/04/23 00:09:18;;;;;;;1.95;1.15;;;9.10;83.50;;;;;;5221064;27;20022;-86
2024/04/23 00:11:44;;;;;;;2.38;1.00;;;9.00;83.70;;;;;;5215727;27;20004;-87
2024/04/23 00:14:10;;;;;;;1.33;1.05;;;9.00;84.10;;;;;;5208495;27;20000;-84
2024/04/23 00:16:36;;;;;;;4.45;1.00;;;9.00;84.30;;;;;;5225110;27;20010;-85
2024/04/23 00:19:02;;;;;;;1.90;0.98;;;9.00;84.30;;;;;;5214881;27;20003;-84
2024/04/23 00:21:27;;;;;;;3.03;1.13;;;9.00;84.40;;;;;;5212945;27;20000;-86
2024/04/23 00:23:53;;;;;;;1.85;1.15;;;9.10;84.50;;;;;;5144754;27;20016;-86
2024/04/23 00:26:19;;;;;;;0.73;0.60;;;9.20;84.60;;;;;;5117935;27;20021;-86
2024/04/23 00:28:45;;;;;;;1.83;1.02;;;9.20;84.50;;;;;;5145546;27;20016;-85
2024/04/23 00:31:10;;;;;;;0.85;0.75;;;9.30;84.30;;;;;;5145002;27;20016;-85
2024/04/23 00:33:36;;;;;;;0.98;0.88;;;9.30;84.10;;;;;;5123558;27;20001;-86
2024/04/23 00:36:04;;;;;;;1.25;0.77;;;9.40;84.00;;;;;;5166585;27;20001;-86
2024/04/23 00:38:29;;;;;;;4.28;0.90;;;9.40;83.70;;;;;;5128576;27;20005;-85
2024/04/23 00:40:55;;;;;;;1.48;0.90;;;9.40;83.60;;;;;;5121715;27;20491;-86
2024/04/23 00:43:21;;;;;;;1.23;0.63;;;9.40;84.00;;;;;;5146752;27;20017;-84
2024/04/23 00:45:52;;;;;;;1.20;0.80;;;9.30;83.90;;;;;;5144654;27;20023;-88
2024/04/23 00:48:19;;;;;;;0.85;0.80;;;9.30;84.40;;;;;;5126607;27;20013;-87
2024/04/23 00:50:47;;;;;;;2.03;0.73;;;9.20;83.80;;;;;;5118425;27;20016;-88
2024/04/23 00:53:14;;;;;;;1.45;0.90;;;9.20;84.30;;;;;;5145626;27;20005;-86
2024/04/23 00:55:41;;;;;;;1.08;0.80;;;9.20;84.10;;;;;;5118686;27;20013;-87
2024/04/23 00:58:07;;;;;;;1.23;0.88;;;9.10;84.00;;;;;;5144539;27;20597;-87
2024/04/23 01:00:33;;;;;;;0.85;0.68;;;9.00;84.10;;;;;;5128127;27;20003;-87
2024/04/23 01:02:59;;;;;;;1.15;0.90;;;9.10;84.50;;;;;;5183331;27;20468;-87
2024/04/23 01:05:25;;;;;;;2.15;0.90;;;9.00;84.30;;;;;;5213589;27;20015;-85
2024/04/23 01:07:51;;;;;;;1.15;0.90;;;9.10;84.40;;;;;;5212996;27;20004;-84
2024/04/23 01:10:17;;;;;;;1.98;0.98;;;9.10;84.40;;;;;;5213402;27;20011;-86
2024/04/23 01:12:43;;;;;;;0.90;0.70;;;9.10;84.40;;;;;;5224650;27;20004;-85
2024/04/23 01:15:11;;;;;;;0.80;0.68;;;9.10;84.70;;;;;;5233394;27;20006;-85
2024/04/23 01:17:39;;;;;;;0.70;0.70;;;9.00;84.20;;;;;;5197159;27;19999;-86
2024/04/23 01:20:08;;;;;;;1.02;0.65;;;9.00;84.50;;;;;;5187058;27;20112;-85
2024/04/23 01:22:50;;;;;;;1.58;0.80;;;9.00;85.30;;;;;;5214499;27;20338;-86
2024/04/23 01:25:22;;;;;;;1.55;0.80;;;9.00;84.70;;;;;;5225858;27;20063;-84
2024/04/23 01:27:49;;;;;;;1.75;0.70;;;9.00;84.50;;;;;;5217296;27;20003;-85
2024/04/23 01:30:17;;;;;;;2.38;0.70;;;9.00;84.40;;;;;;5220176;27;20012;-87
2024/04/23 01:32:47;;;;;;;2.13;1.02;;;9.00;84.30;;;;;;5214984;27;20449;-87
2024/04/23 01:35:14;;;;;;;3.83;0.80;;;9.00;84.50;;;;;;5183331;27;20349;-86
2024/04/23 01:37:42;;;;;;;0.68;0.65;;;9.00;84.40;;;;;;5221813;27;20047;-84
2024/04/23 01:40:09;;;;;;;1.02;0.60;;;9.00;84.40;;;;;;5214757;27;20003;-83
2024/04/23 01:42:37;;;;;;;3.25;0.88;;;9.00;84.60;;;;;;5213672;27;20012;-83
2024/04/23 01:45:03;;;;;;;;;;;8.90;84.60;;;;;;5214040;27;20000;-83
2024/04/23 01:47:29;;;;;;;0.60;0.60;;;8.90;84.60;;;;;;5187436;27;19952;-84
2024/04/23 01:49:56;;;;;;;0.82;0.60;;;8.90;84.90;;;;;;5212566;27;20015;-85
2024/04/23 01:52:22;;;;;;;1.67;0.70;;;8.90;84.90;;;;;;5204196;27;20019;-86
2024/04/23 01:54:48;;;;;;;2.95;0.85;;;8.80;85.20;;;;;;5216887;27;20048;-85
2024/04/23 01:57:14;;;;;;;2.80;1.42;;;8.70;85.50;;;;;;5228081;27;20023;-84
2024/04/23 01:59:50;;;;;;;1.55;0.80;;;8.70;85.90;;;;;;5205812;27;20325;-84
2024/04/23 02:02:18;;;;;;;2.42;0.95;;;8.80;86.00;;;;;;5212099;27;20007;-84
2024/04/23 02:04:44;;;;;;;0.68;0.60;;;8.70;86.00;;;;;;5182601;27;20019;-86
2024/04/23 02:07:11;;;;;;;1.35;1.05;;;8.70;86.20;;;;;;5182490;27;20003;-86
2024/04/23 02:09:37;;;;;;;0.75;0.73;;;8.70;86.20;;;;;;5210699;27;20035;-83
2024/04/23 02:12:04;;;;;;;1.88;1.17;;;8.70;86.10;;;;;;5182504;27;20007;-84
2024/04/23 02:14:30;;;;;;;1.92;0.80;;;8.70;86.20;;;;;;5208512;27;20005;-84
2024/04/23 02:16:56;;;;;;;2.58;1.15;;;8.60;86.10;;;;;;5176088;27;20438;-86
2024/04/23 02:19:22;;;;;;;1.15;1.00;;;8.50;86.40;;;;;;5175266;27;20005;-84
2024/04/23 02:21:48;;;;;;;1.65;1.08;;;8.40;86.50;;;;;;5148704;27;20534;-84
2024/04/23 02:24:14;;;;;;;1.55;0.68;;;8.30;86.90;;;;;;5179299;27;20005;-84
2024/04/23 02:26:39;;;;;;;1.67;0.82;;;8.40;86.90;;;;;;5176614;27;20000;-84
2024/04/23 02:29:05;;;;;;;1.30;0.90;;;8.40;86.70;;;;;;5188080;27;20012;-83
2024/04/23 02:31:31;;;;;;;6.20;0.98;;;8.50;86.60;;;;;;5191515;27;20060;-84
2024/04/23 02:33:58;;;;;;;1.60;0.60;;;8.50;86.30;;;;;;5175892;27;20061;-85
2024/04/23 02:36:23;;;;;;;1.50;0.63;;;8.50;85.90;;;;;;5149985;27;20124;-84
2024/04/23 02:38:49;;;;;;;0.65;0.50;;;8.60;85.80;;;;;;5183438;27;20004;-84
2024/04/23 02:41:15;;;;;;;1.15;0.80;;;8.60;85.70;;;;;;5197145;27;20004;-85
2024/04/23 02:43:41;;;;;;;0.73;0.60;;;8.60;85.40;;;;;;5150950;27;20013;-85
2024/04/23 02:46:06;;;;;;;1.23;0.68;;;8.50;84.80;;;;;;5176819;27;20041;-84
2024/04/23 02:48:32;;;;;;;1.55;0.60;;;8.40;83.80;;;;;;5202552;27;20019;-85
2024/04/23 02:51:00;;;;;;;0.45;0.45;;;8.30;83.80;;;;;;5182696;27;20016;-84
2024/04/23 02:53:25;;;;;;;0.98;0.50;;;8.30;83.30;;;;;;5212563;27;20071;-83
2024/04/23 02:55:51;;;;;;;0.40;0.40;;;8.20;83.30;;;;;;5235738;27;20545;-82
2024/04/23 02:58:17;;;;;;;0.43;0.43;;;8.40;83.50;;;;;;5181698;27;20007;-83
2024/04/23 03:00:43;;;;;;;4.32;0.90;;;8.40;83.20;;;;;;5196424;27;20008;-84
2024/04/23 03:03:15;;;;;;;0.40;0.40;;;8.50;82.60;;;;;;5202935;27;20352;-84
2024/04/23 03:05:41;;;;;;;1.08;0.63;;;8.40;82.40;;;;;;5223570;27;20000;-83
2024/04/23 03:08:07;;;;;;;0.88;0.75;;;8.40;82.40;;;;;;5198856;27;20032;-81
2024/04/23 03:10:32;;;;;;;2.83;0.63;;;8.30;82.60;;;;;;5224114;27;20543;-82
2024/04/23 03:12:58;;;;;;;1.33;1.00;;;8.30;82.80;;;;;;5213122;27;20038;-85
2024/04/23 03:15:24;;;;;;;3.65;0.50;;;8.30;82.50;;;;;;5182474;27;20008;-84
2024/04/23 03:17:50;;;;;;;1.25;0.70;;;8.40;82.50;;;;;;5174786;27;20004;-83
2024/04/23 03:20:17;;;;;;;0.63;0.40;;;8.30;81.90;;;;;;5194208;27;20015;-81
2024/04/23 03:22:42;;;;;;;0.80;0.47;;;8.20;82.20;;;;;;5214405;27;20541;-84
2024/04/23 03:25:08;;;;;;;0.63;0.40;;;8.20;82.40;;;;;;5213336;27;20015;-83
2024/04/23 03:27:34;;;;;;;2.67;0.77;;;8.10;82.20;;;;;;5214711;27;20458;-85
2024/04/23 03:29:59;;;;;;;0.82;0.35;;;8.00;82.50;;;;;;5216983;27;20353;-84
2024/04/23 03:32:25;;;;;;;1.20;0.50;;;8.00;82.90;;;;;;5216951;27;20457;-83
2024/04/23 03:34:51;;;;;;;0.65;0.65;;;8.10;83.10;;;;;;5197495;27;20076;-84
2024/04/23 03:37:17;;;;;;;1.88;0.68;;;8.30;82.80;;;;;;5209628;27;20003;-84
2024/04/23 03:39:42;;;;;;;1.05;0.60;;;8.40;82.70;;;;;;5215176;27;20021;-83
2024/04/23 03:42:08;;;;;;;2.25;0.65;;;8.50;81.70;;;;;;5214717;27;20019;-83
2024/04/23 03:44:34;;;;;;;0.55;0.52;;;8.60;81.40;;;;;;5220990;27;20003;-83
2024/04/23 03:47:00;;;;;;;0.63;0.50;;;8.70;81.10;;;;;;5200322;27;20388;-83
2024/04/23 03:49:25;;;;;;;1.00;0.30;;;8.80;80.80;;;;;;5184870;27;20035;-83
2024/04/23 03:51:51;;;;;;;3.85;0.60;;;8.80;80.00;;;;;;5213075;27;20015;-84
2024/04/23 03:54:17;;;;;;;1.60;0.50;;;8.80;79.40;;;;;;5215173;27;20357;-82
2024/04/23 03:56:44;;;;;;;0.47;0.40;;;8.80;79.70;;;;;;5213919;27;20087;-82
2024/04/23 03:59:10;;;;;;;1.08;0.45;;;8.70;79.30;;;;;;5212483;27;20013;-84
2024/04/23 04:01:35;;;;;;;1.48;0.70;;;8.50;79.90;;;;;;5207662;27;20341;-85
2024/04/23 04:06:45;;;;;;;0.65;0.43;;;8.70;79.70;;;;;;5201800;27;20052;-85
2024/04/23 04:09:11;;;;;;;1.55;0.40;;;8.80;79.70;;;;;;5205246;27;20016;-83
2024/04/23 04:11:37;;;;;;;0.45;0.35;;;8.90;79.80;;;;;;5212449;27;20011;-86
2024/04/23 04:14:03;;;;;;;1.70;0.57;;;9.00;79.10;;;;;;5212841;27;20369;-84
2024/04/23 04:16:29;;;;;;;0.80;0.45;;;8.80;79.10;;;;;;5215842;27;20003;-85
2024/04/23 04:18:55;;;;;;;0.63;0.50;;;8.80;79.40;;;;;;5183536;27;20015;-83
2024/04/23 04:21:22;;;;;;;1.65;0.38;;;8.80;79.70;;;;;;5212123;27;20004;-83
2024/04/23 04:23:47;;;;;;;2.40;0.38;;;8.90;79.40;;;;;;5198110;27;20018;-83
2024/04/23 04:26:15;;;;;;;2.50;0.45;;;9.00;79.30;;;;;;5212691;27;20489;-84
2024/04/23 04:28:41;;;;;;;0.68;0.50;;;9.10;79.10;;;;;;5212109;27;20007;-84
2024/04/23 04:31:07;;;;;;;0.47;0.47;;;9.20;78.70;;;;;;5212587;27;20036;-85
2024/04/23 04:33:39;;;;;;;1.15;0.80;;;9.20;78.50;;;;;;5242261;27;20534;-85
2024/04/23 04:36:05;;;;;;;0.60;0.45;;;9.20;78.40;;;;;;5187459;27;20024;-84
2024/04/23 04:38:34;;;;;;;1.15;0.68;;;9.20;78.10;;;;;;5209502;27;20366;-86
2024/04/23 04:40:59;;;;;;;7.72;1.10;;;9.10;78.10;;;;;;5190925;27;20026;-84
2024/04/23 04:43:25;;;;;;;1.80;0.70;;;9.20;78.40;;;;;;5215136;27;19999;-84
2024/04/23 04:45:51;;;;;;;1.58;0.82;;;9.30;78.70;;;;;;5224688;27;20015;-83
2024/04/23 04:48:17;;;;;;;1.00;0.47;;;9.50;78.00;;;;;;5215312;27;20011;-84
2024/04/23 04:50:44;;;;;;;0.60;0.38;;;9.50;77.40;;;;;;5213261;27;20014;-84
2024/04/23 04:53:09;;;;;;;1.50;0.82;;;9.50;77.30;;;;;;5184255;27;20434;-82
2024/04/23 04:55:35;;;;;;;1.08;0.68;;;9.50;77.90;;;;;;5208597;27;20014;-85
2024/04/23 04:58:01;;;;;;;3.20;1.25;;;9.60;77.80;;;;;;5224850;27;20022;-83
2024/04/23 05:00:27;;;;;;;1.65;0.75;;;9.70;77.40;;;;;;5221747;27;20008;-85
2024/04/23 05:02:53;;;;;;;1.20;0.68;;;9.80;77.30;;;;;;5220707;27;20014;-84
2024/04/23 05:05:18;;;;;;;3.53;1.27;;;10.00;77.10;;;;;;5225680;27;20008;-82
2024/04/23 05:07:45;;;;;;;8.43;1.88;;;10.10;76.90;;;;;;5200257;27;20330;-82
2024/04/23 05:10:10;;;;;;;1.83;1.05;;;10.20;76.60;;;;;;5221737;27;20023;-84
2024/04/23 05:12:37;;;;;;;2.83;0.70;;;10.40;76.00;;;;;;5213487;27;20438;-86
2024/04/23 05:15:04;;;;;;;4.40;0.70;;;10.40;75.60;;;;;;5212956;27;20078;-85
2024/04/23 05:17:31;;;;;;;5.13;1.05;;;10.40;75.30;;;;;;5212960;27;20004;-85
2024/04/23 05:19:58;;;;;;;1.38;1.15;;;10.40;75.20;;;;;;5214966;27;20012;-85
2024/04/23 05:22:25;;;;;;;1.65;0.80;;;10.40;75.30;;;;;;5224535;27;20056;-84
2024/04/23 05:24:51;;;;;;;2.20;0.50;;;10.20;75.60;;;;;;5232860;27;20011;-86
2024/04/23 05:27:17;;;;;;;3.45;1.08;;;10.20;75.40;;;;;;5215454;27;20023;-86
2024/04/23 05:29:43;;;;;;;2.80;0.90;;;10.20;75.60;;;;;;5212057;27;20015;-84
2024/04/23 05:34:56;;;;;;;1.60;0.82;;;10.10;75.70;;;;;;5223259;27;20034;-86
2024/04/23 05:37:22;;;;;;;1.95;1.33;;;10.00;76.20;;;;;;5226249;27;20007;-85
2024/04/23 05:39:48;;;;;;;1.10;0.98;;;10.10;76.40;;;;;;5215060;27;20453;-85
2024/04/23 05:42:16;;;;;;;2.63;1.05;;;10.20;75.90;;;;;;5182356;27;20008;-86
2024/04/23 05:44:42;;;;;;;4.32;1.13;;;10.20;76.10;;;;;;5211885;27;20008;-86
2024/04/23 05:47:08;;;;;;;1.88;0.98;;;10.20;76.30;;;;;;5210393;27;20039;-83
2024/04/23 05:50:11;;;;;;;3.30;1.10;;;10.40;76.00;;;;;;5181134;27;20015;-83
2024/04/23 05:53:14;;;;;;;1.15;0.88;;;10.30;75.70;;;;;;5208063;27;20018;-87
2024/04/23 05:55:41;;;;;;;2.13;0.90;;;10.20;75.50;;;;;;5210705;27;20008;-84
2024/04/23 05:58:08;;;;;;;1.20;1.10;;;10.20;75.50;;;;;;5182306;27;20003;-86
2024/04/23 06:00:35;;;;;;;2.15;1.10;;;10.00;75.40;;;;;;5182311;27;20004;-84
2024/04/23 06:03:02;;;;;;;4.30;0.95;;;9.90;76.10;;;;;;5181773;27;20027;-84
2024/04/23 06:05:28;;;;;;;3.38;0.88;;;9.90;75.90;;;;;;5206398;27;20473;-83
2024/04/23 06:07:55;;;;;;;3.53;1.30;;;10.10;76.10;;;;;;5210364;27;20008;-85
2024/04/23 06:10:21;;;;;;;6.70;2.97;;;10.50;75.70;;;;;;5212640;27;20004;-84
2024/04/23 06:12:48;;;;;;;2.90;0.90;;;10.80;75.50;;;;;;5210427;27;20007;-86
2024/04/23 06:15:14;;;;;;;1.90;1.10;;;11.10;73.60;;;;;;5180635;27;20520;-87
2024/04/23 06:17:40;;;;;;;1.25;0.90;;;11.20;73.20;;;;;;5166968;27;20005;-86
2024/04/23 06:20:08;;;;;;;45.97;5.70;;;11.20;72.90;;;;;;5210607;27;20007;-84
2024/04/23 06:22:39;;;;;;;;;;;11.30;73.00;;;;;;5199961;27;20071;-85
2024/04/23 06:25:07;;;;;;;3.55;1.20;;;11.30;73.10;;;;;;5169846;27;19928;-84
2024/04/23 06:27:36;;;;;;;7.53;2.17;;;11.40;73.50;;;;;;5209434;27;20008;-84
2024/04/23 06:30:09;;;;;;;4.97;1.45;;;11.60;72.70;;;;;;5211566;27;20011;-82
2024/04/23 06:32:36;;;;;;;6.93;1.55;;;11.70;72.10;;;;;;5192495;27;20450;-84
2024/04/23 06:35:03;;;;;;;0.93;0.88;;;11.90;71.70;;;;;;5211795;27;20425;-84
2024/04/23 06:37:29;;;;;;;0.93;0.80;;;11.80;71.30;;;;;;5211176;27;20003;-85
2024/04/23 06:39:55;;;;;;;2.38;0.93;;;11.90;71.10;;;;;;5181093;27;20003;-86
2024/04/23 06:42:21;;;;;;;3.22;0.90;;;12.00;71.00;;;;;;5181590;27;20401;-83
2024/04/23 06:44:47;;;;;;;0.98;0.88;;;11.60;70.80;;;;;;5216429;27;20008;-84
2024/04/23 06:47:13;;;;;;;7.63;1.02;;;11.40;71.50;;;;;;5188208;27;20466;-82
2024/04/23 06:49:40;;;;;;;1.48;1.05;;;11.50;72.00;;;;;;5211449;27;20453;-88
2024/04/23 06:52:08;;;;;;;2.85;1.10;;;11.70;71.60;;;;;;5205946;27;20009;-83
2024/04/23 06:54:35;;;;;;;5.55;1.10;;;11.70;71.30;;;;;;5198023;27;20003;-82
2024/04/23 06:57:01;;;;;;;6.25;1.33;;;11.80;71.00;;;;;;5183828;27;20018;-85
2024/04/23 06:59:26;;;;;;;2.45;1.20;;;11.90;70.70;;;;;;5214048;27;20008;-84
2024/04/23 07:01:52;;;;;;;1.70;1.40;;;12.10;70.40;;;;;;5209979;27;20076;-84
2024/04/23 07:04:19;;;;;;;1.70;1.08;;;12.30;69.20;;;;;;5215519;27;20071;-84
2024/04/23 07:06:45;;;;;;;2.15;1.33;;;12.20;69.00;;;;;;5222075;27;20413;-83
2024/04/23 07:09:11;;;;;;;4.63;1.65;;;12.40;69.10;;;;;;5191390;27;20339;-85
2024/04/23 07:11:37;;;;;;;1.27;0.90;;;12.70;68.70;;;;;;5213852;27;20014;-82
2024/04/23 07:14:03;;;;;;;2.15;1.15;;;12.70;67.40;;;;;;5212977;27;20055;-85
2024/04/23 07:16:34;;;;;;;1.92;1.40;;;12.70;67.60;;;;;;5212873;27;20007;-86
2024/04/23 07:19:00;;;;;;;3.28;1.30;;;12.80;67.80;;;;;;5172383;27;20014;-86
2024/04/23 07:21:26;;;;;;;3.30;1.58;;;13.20;67.50;;;;;;5208798;27;20004;-83
2024/04/23 07:23:52;;;;;;;4.07;1.40;;;13.70;66.50;;;;;;5214534;27;20003;-81
2024/04/23 07:26:18;;;;;;;1.33;1.20;;;14.30;64.90;;;;;;5219372;27;19996;-87
2024/04/23 07:28:44;;;;;;;5.65;1.42;;;14.80;63.30;;;;;;5196693;27;20004;-87
2024/04/23 07:31:10;;;;;;;47.42;5.55;;;15.00;62.20;;;;;;5189056;27;20516;-85
2024/04/23 07:33:36;;;;;;;3.83;1.63;;;14.70;62.20;;;;;;5213432;27;20345;-83
2024/04/23 07:36:08;;;;;;;2.75;2.00;;;14.80;62.30;;;;;;5214160;27;20075;-85
2024/04/23 07:38:42;;;;;;;3.88;1.88;;;15.20;61.90;;;;;;5206495;27;20040;-85
2024/04/23 07:41:08;;;;;;;2.47;1.30;;;15.70;61.10;;;;;;5215665;27;20015;-88
2024/04/23 07:43:36;;;;;;;2.60;1.73;;;16.30;59.40;;;;;;5214488;27;20082;-87
2024/04/23 07:46:02;;;;;;;1.83;1.15;;;16.40;58.40;;;;;;5184934;27;20018;-86
2024/04/23 07:48:28;;;;;;;2.25;1.13;;;16.50;58.40;;;;;;5186480;27;20016;-87
2024/04/23 07:50:58;;;;;;;1.98;1.20;;;17.40;58.20;;;;;;5214592;27;20003;-87
2024/04/23 07:53:24;;;;;;;1.60;1.35;;;18.50;55.10;;;;;;5204224;27;20048;-90
2024/04/23 07:55:50;;;;;;;1.58;1.10;;;19.70;53.20;;;;;;5160030;27;20008;-84
2024/04/23 07:58:16;;;;;;;1.70;1.45;;;20.70;51.30;;;;;;5212410;27;20422;-82
2024/04/23 08:00:42;;;;;;;3.47;1.63;;;21.90;49.50;;;;;;5212049;27;20010;-84
2024/04/23 08:03:08;;;;;;;6.40;2.35;;;22.50;47.00;;;;;;5182463;27;20441;-87
2024/04/23 08:05:34;;;;;;;5.40;1.92;;;22.40;46.80;;;;;;5208487;27;20003;-85
2024/04/23 08:08:00;;;;;;;9.60;2.22;;;21.90;45.50;;;;;;5211972;27;20007;-86
2024/04/23 08:10:26;;;;;;;8.55;1.45;;;20.60;47.10;;;;;;5212413;27;20023;-83
2024/04/23 08:12:53;;;;;;;6.22;2.20;;;20.30;48.40;;;;;;5181495;27;20027;-88
2024/04/23 08:15:19;;;;;;;;;;;20.00;48.20;;;;;;5214563;27;20087;-87
2024/04/23 08:17:45;;;;;;;2.95;1.80;;;20.20;50.10;;;;;;5212128;27;19936;-87
2024/04/23 08:20:11;;;;;;;2.83;1.40;;;20.20;48.40;;;;;;5194657;27;20078;-87
2024/04/23 08:22:37;;;;;;;3.05;1.80;;;20.00;48.10;;;;;;5200843;27;20000;-88
2024/04/23 08:25:03;;;;;;;5.38;1.92;;;20.30;48.60;;;;;;5162416;27;20016;-83
2024/04/23 08:27:29;;;;;;;3.42;1.50;;;20.50;47.60;;;;;;5194416;27;20020;-85
2024/04/23 08:29:55;;;;;;;2.78;1.55;;;20.10;47.40;;;;;;5177289;27;20485;-84
2024/04/23 08:32:21;;;;;;;7.68;1.80;;;19.40;49.00;;;;;;5187292;27;20015;-86
2024/04/23 08:34:46;;;;;;;2.17;1.30;;;19.60;49.60;;;;;;5218220;27;20004;-87
2024/04/23 08:37:12;;;;;;;4.18;1.88;;;20.30;48.30;;;;;;5163484;27;20017;-88
2024/04/23 08:39:38;;;;;;;4.03;1.70;;;20.80;47.00;;;;;;5213506;27;20346;-89
2024/04/23 08:42:11;;;;;;;1.90;1.17;;;20.40;47.40;;;;;;5182349;27;20000;-85
2024/04/23 08:44:41;;;;;;;1.98;1.17;;;21.30;47.10;;;;;;5182057;27;20495;-83
2024/04/23 08:47:08;;;;;;;2.65;1.65;;;22.30;45.30;;;;;;5211304;27;20012;-87
2024/04/23 08:49:35;;;;;;;;;;;21.90;44.70;;;;;;5213009;27;20044;-86
2024/04/23 08:52:01;;;;;;;9.10;1.70;;;21.90;46.30;;;;;;5211016;27;19928;-87
2024/04/23 08:54:27;;;;;;;6.97;1.85;;;21.50;45.60;;;;;;5202083;27;20008;-89
2024/04/23 08:56:54;;;;;;;2.92;1.70;;;22.20;45.30;;;;;;5198315;27;20045;-85
2024/04/23 08:59:21;;;;;;;3.47;1.45;;;23.30;43.40;;;;;;5182529;27;20079;-86
2024/04/23 09:01:56;;;;;;;;;;;23.10;42.60;;;;;;5213615;27;20398;-85
2024/04/23 09:04:23;;;;;;;2.90;1.52;;;22.60;44.10;;;;;;5223933;27;19992;-86
2024/04/23 09:06:51;;;;;;;4.55;1.65;;;21.60;43.70;;;;;;5228030;27;20063;-86
2024/04/23 09:09:20;;;;;;;;;;;20.50;45.20;;;;;;5219895;27;20004;-84
2024/04/23 09:11:49;;;;;;;4.22;1.95;;;20.20;46.60;;;;;;5184491;27;19952;-88
2024/04/23 09:14:15;;;;;;;4.40;1.73;;;20.40;46.40;;;;;;5214203;27;20004;-86
2024/04/23 09:16:41;;;;;;;3.60;1.33;;;21.10;45.80;;;;;;5217932;27;20000;-86
2024/04/23 09:19:08;;;;;;;2.63;1.40;;;22.90;44.30;;;;;;5212911;27;20004;-84
2024/04/23 09:21:33;;;;;;;4.65;1.70;;;23.60;42.20;;;;;;5203786;27;20024;-84
2024/04/23 09:24:03;;;;;;;2.67;2.22;;;23.20;42.30;;;;;;5212414;27;20078;-88
2024/04/23 09:26:30;;;;;;;2.47;1.50;;;24.10;42.30;;;;;;5165986;27;20173;-88
2024/04/23 09:28:56;;;;;;;2.60;2.08;;;23.90;41.30;;;;;;5160451;27;20012;-88
2024/04/23 09:31:24;;;;;;;2.75;1.50;;;24.70;41.20;;;;;;5212867;27;20016;-87
2024/04/23 09:33:53;;;;;;;5.32;2.42;;;26.20;40.10;;;;;;5210497;27;20027;-87
2024/04/23 09:36:24;;;;;;;3.35;1.95;;;26.50;38.20;;;;;;5214302;27;20035;-88
2024/04/23 09:38:58;;;;;;;3.72;2.42;;;23.90;39.40;;;;;;5222051;27;20026;-88
2024/04/23 09:41:26;;;;;;;6.80;2.50;;;23.60;41.60;;;;;;5201261;27;20003;-88
2024/04/23 09:43:59;;;;;;;4.07;2.08;;;23.70;41.10;;;;;;5212193;27;20055;-89
2024/04/23 09:46:30;;;;;;;2.92;1.75;;;24.40;40.40;;;;;;5182947;27;20003;-89
2024/04/23 09:48:59;;;;;;;5.50;1.88;;;25.70;39.60;;;;;;5183728;27;20015;-90
2024/04/23 09:51:29;;;;;;;9.18;1.88;;;26.70;38.60;;;;;;5182416;27;20003;-87
2024/04/23 09:53:59;;;;;;;3.17;1.85;;;27.90;37.90;;;;;;5204139;27;20036;-87
2024/04/23 09:56:25;;;;;;;5.45;1.98;;;28.70;36.30;;;;;;5180423;27;20004;-85
2024/04/23 09:58:51;;;;;;;2.92;2.35;;;28.30;35.90;;;;;;5201329;27;20012;-86
2024/04/23 10:01:21;;;;;;;10.18;3.85;;;27.80;35.90;;;;;;5210128;27;20018;-86
2024/04/23 10:03:50;;;;;;;2.75;1.63;;;27.20;36.50;;;;;;5202287;27;20023;-85
2024/04/23 10:06:26;;;;;;;4.22;2.00;;;26.10;36.80;;;;;;5211415;27;20492;-87
2024/04/23 10:09:15;;;;;;;5.53;1.95;;;25.30;37.60;;;;;;5180700;27;20003;-86
2024/04/23 10:11:44;;;;;;;1.90;1.58;;;24.70;38.20;;;;;;5202541;27;20008;-85
2024/04/23 10:14:13;;;;;;;3.85;2.22;;;24.30;39.10;;;;;;5210170;27;20022;-87
2024/04/23 10:16:43;;;;;;;2.50;1.80;;;24.20;39.30;;;;;;5181458;27;20003;-85
2024/04/23 10:19:12;;;;;;;5.07;2.22;;;24.50;39.10;;;;;;5176527;27;20223;-86
2024/04/23 10:21:41;;;;;;;5.00;2.05;;;24.30;39.00;;;;;;5183924;27;20031;-84
2024/04/23 10:24:09;;;;;;;3.80;2.00;;;23.70;39.10;;;;;;5218869;27;20000;-86
2024/04/23 10:26:42;;;;;;;;;;;23.00;40.10;;;;;;5181448;27;19999;-86
2024/04/23 10:29:09;;;;;;;3.42;1.85;;;21.70;41.10;;;;;;5190834;27;19936;-84
2024/04/23 10:31:36;;;;;;;5.82;2.05;;;21.00;43.10;;;;;;5184218;27;20004;-86
2024/04/23 10:34:06;;;;;;;4.43;2.93;;;20.50;43.70;;;;;;5213343;27;20467;-85
2024/04/23 10:36:42;;;;;;;2.88;1.85;;;20.30;44.60;;;;;;5183947;27;20008;-84
2024/04/23 10:39:11;;;;;;;4.43;2.25;;;19.90;44.90;;;;;;5211153;27;20004;-84
2024/04/23 10:41:40;;;;;;;5.70;2.33;;;19.50;45.80;;;;;;5203583;27;20014;-85
2024/04/23 10:44:10;;;;;;;2.90;1.83;;;19.20;45.90;;;;;;5192644;27;20040;-85
2024/04/23 10:46:37;;;;;;;9.40;3.90;;;18.50;46.30;;;;;;5182999;27;20009;-84
2024/04/23 10:49:18;;;;;;;3.25;2.40;;;18.00;47.40;;;;;;5213777;27;20035;-87
2024/04/23 10:51:48;;;;;;;5.20;3.20;;;17.90;47.80;;;;;;5185269;27;20011;-86
2024/04/23 10:54:15;;;;;;;7.78;2.40;;;17.80;48.30;;;;;;5187539;27;20004;-86
2024/04/23 10:56:41;;;;;;;;;;;18.00;48.10;;;;;;5225169;27;20059;-88
2024/04/23 10:59:12;;;;;;;3.47;1.88;;;18.00;48.00;;;;;;5183609;27;19936;-88
2024/04/23 11:02:14;;;;;;;10.23;4.25;;;18.10;48.40;;;;;;5188957;27;20015;-89
2024/04/23 11:04:50;;;;;;;4.30;2.35;;;18.30;48.00;;;;;;5117069;28;20123;-87
2024/04/23 11:07:27;;;;;;;5.40;2.20;;;18.40;48.20;;;;;;5113845;28;20003;-87
2024/04/23 11:09:58;;;;;;;3.72;2.80;;;17.80;48.40;;;;;;5125092;28;20025;-88
2024/04/23 11:12:25;;;;;;;2.60;1.92;;;17.80;48.60;;;;;;5117197;28;20021;-88
2024/04/23 11:14:54;;;;;;;6.72;2.25;;;17.80;48.30;;;;;;5124511;27;20012;-88
2024/04/23 11:17:21;;;;;;;4.03;2.50;;;17.50;48.60;;;;;;5110644;27;20002;-84
2024/04/23 11:19:56;;;;;;;5.43;2.75;;;17.30;49.30;;;;;;5111212;28;20424;-91
2024/04/23 11:22:34;;;;;;;6.63;2.90;;;17.60;49.40;;;;;;5124569;27;20088;-88
2024/04/23 11:25:05;;;;;;;5.03;2.40;;;17.60;49.00;;;;;;5106449;28;20006;-87
2024/04/23 11:27:32;;;;;;;3.75;2.80;;;17.50;49.10;;;;;;5088649;28;20020;-86
2024/04/23 11:29:58;;;;;;;5.65;2.15;;;17.40;49.00;;;;;;5123063;28;20138;-88
2024/04/23 11:32:24;;;;;;;5.07;2.70;;;17.20;49.20;;;;;;5122678;27;20077;-87
2024/04/23 11:34:50;;;;;;;4.32;2.55;;;17.20;49.60;;;;;;5109971;28;20003;-89
2024/04/23 11:37:23;;;;;;;8.13;2.95;;;17.10;49.80;;;;;;5116386;28;20002;-89
2024/04/23 11:39:58;;;;;;;4.72;2.17;;;17.10;50.00;;;;;;5216649;27;20007;-90
2024/04/23 11:42:31;;;;;;;3.92;2.40;;;17.10;50.10;;;;;;5212836;27;20445;-88
2024/04/23 11:45:02;;;;;;;5.18;2.50;;;17.10;50.30;;;;;;5212019;27;20083;-86
2024/04/23 11:47:29;;;;;;;3.17;2.00;;;17.10;50.00;;;;;;5181803;27;20337;-84
2024/04/23 11:49:55;;;;;;;4.47;2.50;;;17.20;49.50;;;;;;5206793;27;20015;-84
2024/04/23 11:52:23;;;;;;;7.60;2.43;;;17.10;49.80;;;;;;5204777;27;20014;-86
2024/04/23 11:54:50;;;;;;;4.95;2.40;;;17.00;49.70;;;;;;5211579;27;20336;-83
2024/04/23 11:57:18;;;;;;;4.07;2.65;;;16.70;49.90;;;;;;5182442;27;20000;-86
2024/04/23 11:59:45;;;;;;;6.13;2.35;;;16.70;50.70;;;;;;5182412;27;20450;-85
2024/04/23 12:02:12;;;;;;;3.10;2.55;;;16.70;50.90;;;;;;5213477;27;20003;-85
2024/04/23 12:04:40;;;;;;;5.03;2.27;;;16.70;50.30;;;;;;5202809;27;20495;-85
2024/04/23 12:07:06;;;;;;;5.88;2.08;;;16.80;50.30;;;;;;5184929;27;20011;-84
2024/04/23 12:09:32;;;;;;;4.72;2.35;;;16.90;50.30;;;;;;5217572;27;20015;-85
2024/04/23 12:11:59;;;;;;;3.72;1.80;;;17.10;50.20;;;;;;5192005;27;20004;-84
2024/04/23 12:14:29;;;;;;;3.80;1.98;;;17.30;49.40;;;;;;5209699;27;20016;-84
2024/04/23 12:16:55;;;;;;;4.65;2.45;;;17.00;49.80;;;;;;5166673;27;20460;-87
2024/04/23 12:19:22;;;;;;;3.03;2.22;;;16.70;49.90;;;;;;5199311;27;20004;-82
2024/04/23 12:21:48;;;;;;;7.40;2.07;;;16.10;50.30;;;;;;5211033;27;20116;-83
2024/04/23 12:24:17;;;;;;;3.58;2.70;;;15.60;51.50;;;;;;5182613;27;20018;-84
2024/04/23 12:26:44;;;;;;;5.05;2.47;;;15.50;52.40;;;;;;5161161;27;20084;-84
2024/04/23 12:29:10;;;;;;;5.57;2.38;;;15.70;52.40;;;;;;5212158;27;20008;-84
2024/04/23 12:31:37;;;;;;;5.35;3.30;;;15.90;52.20;;;;;;5212930;27;20011;-86
2024/04/23 12:34:03;;;;;;;5.27;2.73;;;16.10;51.80;;;;;;5182423;27;20019;-81
2024/04/23 12:36:29;;;;;;;5.72;2.30;;;16.20;51.80;;;;;;5180965;27;20004;-82
2024/04/23 12:38:55;;;;;;;5.10;2.50;;;16.10;51.70;;;;;;5214427;27;20026;-82
2024/04/23 12:41:22;;;;;;;4.47;2.33;;;16.30;52.00;;;;;;5211642;27;20079;-83
2024/04/23 12:43:49;;;;;;;3.78;2.15;;;16.60;52.10;;;;;;5166103;27;19996;-83
2024/04/23 12:46:16;;;;;;;3.63;2.05;;;16.40;51.10;;;;;;5202748;27;20055;-86
2024/04/23 12:48:43;;;;;;;5.13;2.22;;;16.40;50.90;;;;;;5177911;27;20004;-84
2024/04/23 12:51:10;;;;;;;7.85;2.28;;;16.10;51.10;;;;;;5184276;27;20501;-84
2024/04/23 12:53:36;;;;;;;4.00;2.03;;;16.10;51.60;;;;;;5212596;27;19999;-84
2024/04/23 12:56:02;;;;;;;2.75;1.83;;;16.20;51.60;;;;;;5188165;27;20446;-84
2024/04/23 12:58:30;;;;;;;3.72;2.13;;;16.20;51.30;;;;;;5219128;27;20000;-86
2024/04/23 13:00:56;;;;;;;4.57;2.67;;;15.80;52.00;;;;;;5187857;27;20012;-85